createdAt,value
2023-05-24T00:01:00.261Z,91.60
2023-05-24T00:03:30.897Z,88.80
2023-05-24T00:05:59.093Z,90.80
2023-05-24T00:08:28.382Z,90.70
2023-05-24T00:10:56.266Z,89.30
2023-05-24T00:13:24.133Z,90.30
2023-05-24T00:15:52.179Z,87.90
2023-05-24T00:18:20.129Z,90.90
2023-05-24T00:20:48.508Z,91.40
2023-05-24T00:23:17.285Z,89.40
2023-05-24T00:25:46.802Z,88.40
2023-05-24T00:28:14.763Z,90.30
2023-05-24T00:30:42.927Z,88.70
2023-05-24T00:33:11.154Z,86.00
2023-05-24T00:35:39.101Z,90.20
2023-05-24T00:38:06.969Z,90.50
2023-05-24T00:40:34.847Z,90.20
2023-05-24T00:43:04.130Z,88.00
2023-05-24T00:45:33.688Z,88.80
2023-05-24T00:48:01.776Z,87.50
2023-05-24T00:50:29.825Z,89.80
2023-05-24T00:52:59.328Z,85.70
2023-05-24T00:55:27.270Z,88.10
2023-05-24T00:57:56.099Z,90.50
2023-05-24T01:00:25.659Z,90.50
2023-05-24T01:02:54.883Z,89.30
2023-05-24T01:05:23.777Z,84.00
2023-05-24T01:08:00.738Z,89.00
2023-05-24T01:10:33.146Z,86.70
2023-05-24T01:13:05.809Z,89.30
2023-05-24T01:15:42.329Z,90.30
2023-05-24T01:18:12.829Z,90.90
2023-05-24T01:20:41.510Z,91.00
2023-05-24T01:23:19.616Z,90.80
2023-05-24T01:25:55.044Z,85.40
2023-05-24T01:28:25.053Z,88.70
2023-05-24T01:30:53.378Z,89.50
2023-05-24T01:33:21.778Z,87.70
2023-05-24T01:35:49.717Z,91.20
2023-05-24T01:38:17.641Z,91.50
2023-05-24T01:40:47.302Z,91.80
2023-05-24T01:43:16.605Z,91.20
2023-05-24T01:45:49.705Z,90.10
2023-05-24T01:48:20.480Z,90.60
2023-05-24T01:50:50.608Z,89.10
2023-05-24T01:53:19.713Z,89.20
2023-05-24T01:55:49.642Z,86.80
2023-05-24T01:58:18.095Z,90.60
2023-05-24T02:00:47.536Z,91.60
2023-05-24T02:03:16.008Z,85.10
2023-05-24T02:05:44.881Z,89.50
2023-05-24T02:08:13.109Z,89.10
2023-05-24T02:10:41.515Z,87.90
2023-05-24T02:13:10.079Z,83.30
2023-05-24T02:15:37.968Z,84.60
2023-05-24T02:18:08.828Z,81.70
2023-05-24T02:20:37.858Z,71.20
2023-05-24T02:23:05.939Z,68.40
2023-05-24T02:25:34.148Z,69.70
2023-05-24T02:28:02.023Z,67.80
2023-05-24T02:30:29.918Z,72.00
2023-05-24T02:32:58.338Z,69.90
2023-05-24T02:35:28.056Z,72.20
2023-05-24T02:37:58.605Z,70.80
2023-05-24T02:40:26.669Z,66.70
2023-05-24T02:42:54.568Z,64.00
2023-05-24T02:45:22.421Z,66.20
2023-05-24T02:47:50.488Z,67.20
2023-05-24T02:50:18.562Z,66.60
2023-05-24T02:52:47.838Z,70.60
2023-05-24T02:55:15.747Z,72.00
2023-05-24T02:57:43.664Z,75.00
2023-05-24T03:00:12.739Z,93.70
2023-05-24T03:02:41.369Z,92.10
2023-05-24T03:05:09.583Z,86.70
2023-05-24T03:07:37.533Z,82.20
2023-05-24T03:10:07.449Z,77.40
2023-05-24T03:12:35.439Z,79.20
2023-05-24T03:15:03.530Z,78.00
2023-05-24T03:17:31.423Z,71.60
2023-05-24T03:19:59.619Z,68.60
2023-05-24T03:22:27.643Z,68.10
2023-05-24T03:24:56.252Z,70.70
2023-05-24T03:27:25.589Z,64.20
2023-05-24T03:29:53.513Z,70.00
2023-05-24T03:32:21.402Z,68.40
2023-05-24T03:34:49.337Z,65.60
2023-05-24T03:37:17.308Z,61.10
2023-05-24T03:39:45.212Z,57.30
2023-05-24T03:42:13.141Z,59.70
2023-05-24T03:44:42.421Z,58.70
2023-05-24T03:47:10.410Z,58.90
2023-05-24T03:49:38.356Z,62.00
2023-05-24T03:52:06.387Z,64.10
2023-05-24T03:54:34.319Z,66.80
2023-05-24T03:57:02.591Z,66.60
2023-05-24T03:59:30.852Z,65.60
2023-05-24T04:02:00.120Z,61.60
2023-05-24T04:04:28.241Z,71.70
2023-05-24T04:06:56.232Z,74.50
2023-05-24T04:09:24.181Z,71.90
2023-05-24T04:11:52.133Z,70.90
2023-05-24T04:14:20.040Z,60.90
2023-05-24T04:16:48.387Z,66.50
2023-05-24T04:19:17.654Z,69.30
2023-05-24T04:21:46.389Z,67.00
2023-05-24T04:24:14.373Z,64.50
2023-05-24T04:26:42.337Z,61.70
2023-05-24T04:29:10.333Z,60.20
2023-05-24T04:31:38.278Z,57.40
2023-05-24T04:34:07.798Z,61.90
2023-05-24T04:36:37.461Z,69.20
2023-05-24T04:39:05.787Z,76.50
2023-05-24T04:41:35.732Z,72.60
2023-05-24T04:44:03.651Z,77.00
2023-05-24T04:46:31.617Z,80.10
2023-05-24T04:48:59.629Z,70.30
2023-05-24T04:51:27.661Z,70.80
2023-05-24T04:53:56.956Z,65.00
2023-05-24T04:56:24.892Z,64.60
2023-05-24T04:58:52.886Z,65.10
2023-05-24T05:01:21.681Z,58.20
2023-05-24T05:03:49.787Z,48.20
2023-05-24T05:06:17.757Z,63.00
2023-05-24T05:08:45.722Z,55.20
2023-05-24T05:11:15.238Z,58.30
2023-05-24T05:13:43.261Z,49.30
2023-05-24T05:16:11.247Z,48.40
2023-05-24T05:18:39.266Z,49.20
2023-05-24T05:21:07.328Z,48.70
2023-05-24T05:23:36.290Z,56.30
2023-05-24T05:26:04.172Z,45.10
2023-05-24T05:28:33.505Z,45.70
2023-05-24T05:31:01.447Z,45.30
2023-05-24T05:33:29.410Z,45.90
2023-05-24T05:35:57.467Z,36.50
2023-05-24T05:38:25.404Z,34.10
2023-05-24T05:40:53.428Z,29.00
2023-05-24T05:43:21.544Z,33.30
2023-05-24T05:45:50.906Z,26.30
2023-05-24T05:48:18.978Z,27.60
2023-05-24T05:50:46.916Z,27.40
2023-05-24T05:53:15.997Z,25.20
2023-05-24T05:55:43.885Z,23.00
2023-05-24T05:58:11.986Z,22.30
2023-05-24T06:00:39.978Z,28.30
2023-05-24T06:03:09.336Z,25.00
2023-05-24T06:05:37.336Z,15.50
2023-05-24T06:08:05.282Z,15.50
2023-05-24T06:10:33.285Z,9.60
2023-05-24T06:13:02.582Z,17.10
2023-05-24T06:15:30.557Z,14.80
2023-05-24T06:17:58.561Z,1.00
2023-05-24T06:20:28.037Z,1.00
2023-05-24T06:22:57.032Z,1.00
2023-05-24T06:25:25.335Z,1.00
2023-05-24T06:27:53.236Z,1.00
2023-05-24T06:30:21.785Z,1.00
2023-05-24T06:32:49.843Z,1.00
2023-05-24T06:35:17.826Z,1.00
2023-05-24T06:37:47.179Z,1.00
2023-05-24T06:40:15.068Z,1.00
2023-05-24T06:42:42.998Z,1.00
2023-05-24T06:45:11.391Z,1.00
2023-05-24T06:47:39.335Z,1.00
2023-05-24T06:50:08.717Z,1.00
2023-05-24T06:52:36.766Z,1.00
2023-05-24T06:55:06.581Z,1.00
2023-05-24T06:57:34.479Z,1.00
2023-05-24T07:00:02.525Z,1.00
2023-05-24T07:02:30.515Z,1.00
2023-05-24T07:04:58.860Z,1.00
2023-05-24T07:07:26.870Z,1.00
2023-05-24T07:09:54.824Z,1.00
2023-05-24T07:12:24.613Z,2.90
2023-05-24T07:14:53.299Z,1.00
2023-05-24T07:17:21.230Z,1.00
2023-05-24T07:19:49.165Z,2.00
2023-05-24T07:22:17.264Z,1.00
2023-05-24T07:24:45.166Z,1.00
2023-05-24T07:27:13.150Z,1.00
2023-05-24T07:29:42.441Z,1.00
2023-05-24T07:32:10.363Z,1.00
2023-05-24T07:34:39.722Z,1.00
2023-05-24T07:37:07.760Z,1.00
2023-05-24T07:39:35.708Z,1.00
2023-05-24T07:42:03.718Z,1.00
2023-05-24T07:44:31.751Z,1.00
2023-05-24T07:47:02.434Z,1.00
2023-05-24T07:49:30.364Z,1.00
2023-05-24T07:51:59.709Z,1.00
2023-05-24T07:54:27.749Z,1.00
2023-05-24T07:56:57.355Z,1.00
2023-05-24T07:59:25.309Z,1.00
2023-05-24T08:01:53.989Z,1.00
2023-05-24T08:04:23.876Z,1.00
2023-05-24T08:06:52.110Z,1.00
2023-05-24T08:09:20.092Z,1.00
2023-05-24T08:11:48.008Z,1.00
2023-05-24T08:14:15.978Z,1.00
2023-05-24T08:16:43.997Z,1.00
2023-05-24T08:19:12.106Z,1.00
2023-05-24T08:21:42.072Z,1.00
2023-05-24T08:24:10.025Z,1.00
2023-05-24T08:26:38.116Z,1.00
2023-05-24T08:29:06.197Z,1.00
2023-05-24T08:31:34.194Z,1.00
2023-05-24T08:34:02.754Z,1.00
2023-05-24T08:36:30.684Z,1.00
2023-05-24T08:39:00.193Z,8.60
2023-05-24T08:41:29.496Z,7.20
2023-05-24T08:43:59.941Z,6.00
2023-05-24T08:46:27.955Z,6.80
2023-05-24T08:48:56.468Z,8.00
2023-05-24T08:51:27.268Z,7.30
2023-05-24T08:53:56.231Z,8.20
2023-05-24T08:56:26.455Z,8.90
2023-05-24T08:58:55.130Z,7.20
2023-05-24T09:01:24.611Z,10.30
2023-05-24T09:03:52.766Z,10.60
2023-05-24T09:06:20.844Z,12.20
2023-05-24T09:08:52.449Z,9.40
2023-05-24T09:11:21.028Z,11.60
2023-05-24T09:13:50.561Z,12.60
2023-05-24T09:16:18.542Z,17.70
2023-05-24T09:18:46.776Z,18.60
2023-05-24T09:21:14.811Z,17.20
2023-05-24T09:23:42.819Z,16.70
2023-05-24T09:26:11.612Z,16.90
2023-05-24T09:28:41.706Z,20.10
2023-05-24T09:31:12.339Z,20.10
2023-05-24T09:33:40.682Z,17.70
2023-05-24T09:36:09.255Z,19.60
2023-05-24T09:38:37.309Z,26.70
2023-05-24T09:41:06.418Z,19.20
2023-05-24T09:43:36.236Z,21.10
2023-05-24T09:46:04.895Z,20.70
2023-05-24T09:48:34.417Z,24.20
2023-05-24T09:51:05.904Z,27.10
2023-05-24T09:53:34.982Z,30.10
2023-05-24T09:56:05.158Z,31.30
2023-05-24T09:58:34.029Z,32.10
2023-05-24T10:01:06.154Z,32.60
2023-05-24T10:03:35.739Z,29.50
2023-05-24T10:06:07.339Z,32.30
2023-05-24T10:08:35.848Z,34.40
2023-05-24T10:11:04.280Z,34.40
2023-05-24T10:13:33.571Z,32.70
2023-05-24T10:16:01.529Z,28.40
2023-05-24T10:18:30.132Z,33.40
2023-05-24T10:21:00.901Z,28.50
2023-05-24T10:23:31.011Z,17.80
2023-05-24T10:26:04.314Z,21.10
2023-05-24T10:28:32.600Z,22.50
2023-05-24T10:31:03.450Z,22.30
2023-05-24T10:33:31.987Z,21.20
2023-05-24T10:36:01.370Z,20.80
2023-05-24T10:38:30.824Z,17.10
2023-05-24T10:40:58.958Z,12.40
2023-05-24T10:43:27.208Z,14.20
2023-05-24T10:45:56.535Z,12.80
2023-05-24T10:48:36.201Z,12.00
2023-05-24T10:51:22.798Z,13.60
2023-05-24T10:53:52.138Z,13.50
2023-05-24T10:56:23.495Z,12.20
2023-05-24T10:59:00.240Z,14.60
2023-05-24T11:01:29.110Z,12.40
2023-05-24T11:04:07.806Z,9.50
2023-05-24T11:06:49.610Z,23.00
2023-05-24T11:09:20.243Z,19.40
2023-05-24T11:11:49.789Z,23.70
2023-05-24T11:14:19.659Z,21.20
2023-05-24T11:16:50.080Z,24.20
2023-05-24T11:19:18.936Z,22.90
2023-05-24T11:21:47.232Z,25.10
2023-05-24T11:24:15.164Z,27.50
2023-05-24T11:26:44.752Z,26.60
2023-05-24T11:29:17.519Z,27.50
2023-05-24T11:31:48.530Z,26.50
2023-05-24T11:34:17.319Z,28.40
2023-05-24T11:36:46.020Z,29.10
2023-05-24T11:39:14.137Z,27.00
2023-05-24T11:41:42.104Z,28.10
2023-05-24T11:44:12.013Z,27.50
2023-05-24T11:46:40.230Z,29.00
2023-05-24T11:49:08.401Z,28.20
2023-05-24T11:51:37.525Z,29.30
2023-05-24T11:54:05.527Z,29.20
2023-05-24T11:56:34.227Z,28.80
2023-05-24T11:59:16.331Z,28.40
2023-05-24T12:01:44.696Z,28.90
2023-05-24T12:04:13.250Z,28.80
2023-05-24T12:06:41.903Z,30.20
2023-05-24T12:09:13.322Z,29.10
2023-05-24T12:11:42.256Z,29.30
2023-05-24T12:14:14.706Z,30.30
2023-05-24T12:16:43.620Z,30.10
2023-05-24T12:19:20.294Z,31.50
2023-05-24T12:22:00.445Z,32.40
2023-05-24T12:24:29.022Z,33.60
2023-05-24T12:26:59.495Z,33.00
2023-05-24T12:29:28.909Z,32.00
2023-05-24T12:31:56.834Z,33.30
2023-05-24T12:34:25.313Z,33.00
2023-05-24T12:36:54.184Z,33.00
2023-05-24T12:39:22.870Z,32.60
2023-05-24T12:41:54.322Z,33.40
2023-05-24T12:44:26.649Z,33.90
2023-05-24T12:46:56.449Z,30.30
2023-05-24T12:49:24.702Z,31.70
2023-05-24T12:51:53.127Z,32.80
2023-05-24T12:54:23.487Z,32.80
2023-05-24T12:56:54.121Z,34.60
2023-05-24T12:59:23.711Z,32.10
2023-05-24T13:01:52.426Z,27.70
2023-05-24T13:04:23.245Z,31.40
2023-05-24T13:06:51.316Z,29.70
2023-05-24T13:09:21.458Z,31.10
2023-05-24T13:11:49.660Z,32.40
2023-05-24T13:14:18.251Z,27.50
2023-05-24T13:16:46.372Z,32.70
2023-05-24T13:19:14.592Z,33.30
2023-05-24T13:21:44.037Z,30.80
2023-05-24T13:24:12.486Z,29.00
2023-05-24T13:26:40.604Z,30.00
2023-05-24T13:29:32.368Z,34.00
2023-05-24T13:31:56.652Z,35.60
2023-05-24T13:34:25.833Z,33.20
2023-05-24T13:36:55.626Z,31.60
2023-05-24T13:39:24.893Z,32.30
2023-05-24T13:41:53.041Z,33.40
2023-05-24T13:44:21.427Z,35.00
2023-05-24T13:46:49.355Z,38.10
2023-05-24T13:49:17.278Z,38.60
2023-05-24T13:51:45.483Z,39.10
2023-05-24T13:54:14.896Z,37.90
2023-05-24T13:56:44.767Z,35.40
2023-05-24T13:59:13.011Z,40.50
2023-05-24T14:01:41.322Z,37.30
2023-05-24T14:04:09.571Z,37.70
2023-05-24T14:06:38.432Z,29.60
2023-05-24T14:09:08.378Z,28.00
2023-05-24T14:11:39.240Z,28.10
2023-05-24T14:16:52.200Z,23.40
2023-05-24T14:19:20.261Z,20.70
2023-05-24T14:21:48.215Z,23.50
2023-05-24T14:24:16.234Z,22.30
2023-05-24T14:26:47.489Z,21.40
2023-05-24T14:29:17.954Z,21.40
2023-05-24T14:31:47.336Z,21.80
2023-05-24T14:34:15.398Z,25.80
2023-05-24T14:36:43.363Z,25.20
2023-05-24T14:39:13.508Z,27.90
2023-05-24T14:41:41.403Z,27.40
2023-05-24T14:44:11.434Z,25.30
2023-05-24T14:46:39.405Z,25.40
2023-05-24T14:49:13.161Z,25.20
2023-05-24T14:51:48.475Z,24.90
2023-05-24T14:54:19.510Z,24.10
2023-05-24T14:56:47.448Z,24.60
2023-05-24T14:59:17.220Z,24.90
2023-05-24T15:01:45.151Z,23.80
2023-05-24T15:04:13.310Z,24.20
2023-05-24T15:06:41.209Z,24.00
2023-05-24T15:09:09.074Z,23.70
2023-05-24T15:11:37.794Z,24.20
2023-05-24T15:14:05.730Z,24.40
2023-05-24T15:16:35.134Z,26.30
2023-05-24T15:19:03.480Z,23.70
2023-05-24T15:21:31.425Z,24.80
2023-05-24T15:23:59.386Z,25.20
2023-05-24T15:26:27.455Z,24.60
2023-05-24T15:28:55.385Z,25.30
2023-05-24T15:31:23.390Z,27.20
2023-05-24T15:33:52.689Z,23.90
2023-05-24T15:36:20.650Z,26.90
2023-05-24T15:38:48.566Z,25.20
2023-05-24T15:41:16.593Z,24.90
2023-05-24T15:43:44.595Z,25.20
2023-05-24T15:46:12.499Z,25.10
2023-05-24T15:48:40.527Z,24.80
2023-05-24T15:53:40.723Z,25.50
2023-05-24T15:56:08.846Z,26.70
2023-05-24T15:58:36.724Z,28.30
2023-05-24T16:01:04.674Z,26.90
2023-05-24T16:03:32.800Z,26.80
2023-05-24T16:06:00.979Z,27.70
2023-05-24T16:08:30.370Z,28.60
2023-05-24T16:10:58.662Z,28.20
2023-05-24T16:13:27.172Z,28.50
2023-05-24T16:15:55.086Z,29.50
2023-05-24T16:18:23.696Z,29.40
2023-05-24T16:20:51.956Z,29.70
2023-05-24T16:23:20.303Z,29.50
2023-05-24T16:25:50.027Z,30.00
2023-05-24T16:28:17.967Z,30.30
2023-05-24T16:30:46.028Z,30.70
2023-05-24T16:33:14.011Z,32.30
2023-05-24T16:35:41.909Z,33.30
2023-05-24T16:38:09.814Z,33.40
2023-05-24T16:40:37.709Z,33.20
2023-05-24T16:43:06.952Z,34.20
2023-05-24T16:45:34.881Z,35.10
2023-05-24T16:48:02.929Z,35.00
2023-05-24T16:50:30.842Z,34.40
2023-05-24T16:52:58.933Z,36.30
2023-05-24T16:55:26.859Z,35.00
2023-05-24T16:57:54.821Z,36.30
2023-05-24T17:00:24.116Z,37.20
2023-05-24T17:02:52.093Z,36.70
2023-05-24T17:05:20.378Z,38.50
2023-05-24T17:07:48.308Z,37.10
2023-05-24T17:10:16.203Z,37.30
2023-05-24T17:12:44.253Z,37.40
2023-05-24T17:15:12.691Z,37.90
2023-05-24T17:17:41.985Z,37.70
2023-05-24T17:20:10.147Z,38.00
2023-05-24T17:22:38.164Z,39.00
2023-05-24T17:25:06.687Z,37.50
2023-05-24T17:27:34.672Z,38.60
2023-05-24T17:30:02.683Z,38.70
2023-05-24T17:32:31.215Z,39.40
2023-05-24T17:35:00.556Z,38.90
2023-05-24T17:37:28.418Z,39.60
2023-05-24T17:39:56.332Z,41.10
2023-05-24T17:44:52.664Z,41.10
2023-05-24T17:47:20.808Z,40.20
2023-05-24T17:49:48.717Z,42.90
2023-05-24T17:52:17.923Z,41.10
2023-05-24T17:54:45.872Z,40.70
2023-05-24T17:57:13.724Z,42.50
2023-05-24T17:59:41.629Z,42.40
2023-05-24T18:02:09.505Z,42.80
2023-05-24T18:04:37.495Z,43.80
2023-05-24T18:07:05.585Z,43.60
2023-05-24T18:09:34.903Z,43.80
2023-05-24T18:12:02.819Z,42.90
2023-05-24T18:14:32.187Z,43.50
2023-05-24T18:17:00.304Z,42.00
2023-05-24T18:19:28.204Z,40.60
2023-05-24T18:21:56.123Z,38.70
2023-05-24T18:24:24.035Z,35.10
2023-05-24T18:26:53.317Z,33.80
2023-05-24T18:29:21.253Z,31.00
2023-05-24T18:31:49.595Z,30.70
2023-05-24T18:34:17.798Z,25.10
2023-05-24T18:36:45.787Z,23.20
2023-05-24T18:39:13.651Z,20.10
2023-05-24T18:41:41.723Z,21.00
2023-05-24T18:44:10.974Z,13.00
2023-05-24T18:46:38.920Z,9.00
2023-05-24T18:49:10.897Z,1.00
2023-05-24T18:51:39.214Z,1.00
2023-05-24T18:54:07.367Z,1.00
2023-05-24T18:56:37.248Z,1.00
2023-05-24T18:59:05.229Z,1.00
2023-05-24T19:01:34.711Z,1.00
2023-05-24T19:04:02.690Z,1.00
2023-05-24T19:06:31.155Z,1.00
2023-05-24T19:09:00.150Z,1.00
2023-05-24T19:11:28.130Z,1.00
2023-05-24T19:13:56.051Z,1.00
2023-05-24T19:16:24.034Z,1.00
2023-05-24T19:18:53.359Z,1.00
2023-05-24T19:21:23.885Z,1.00
2023-05-24T19:23:51.799Z,1.00
2023-05-24T19:26:19.737Z,1.00
2023-05-24T19:28:50.514Z,1.00
2023-05-24T19:31:18.454Z,1.00
2023-05-24T19:33:59.971Z,1.00
2023-05-24T19:36:32.846Z,1.00
2023-05-24T19:39:00.800Z,1.00
2023-05-24T19:41:28.670Z,1.00
2023-05-24T19:43:58.449Z,1.00
2023-05-24T19:46:26.628Z,1.00
2023-05-24T19:48:54.540Z,1.00
2023-05-24T19:51:22.729Z,1.00
2023-05-24T19:53:51.948Z,1.00
2023-05-24T19:56:20.734Z,1.00
2023-05-24T19:58:48.680Z,1.00
2023-05-24T20:01:16.693Z,1.00
2023-05-24T20:03:48.354Z,1.00
2023-05-24T20:06:16.830Z,1.00
2023-05-24T20:08:44.804Z,1.00
2023-05-24T20:11:14.411Z,1.00
2023-05-24T20:13:42.301Z,1.00
2023-05-24T20:16:10.238Z,1.00
2023-05-24T20:18:38.169Z,1.00
2023-05-24T20:21:06.060Z,1.00
2023-05-24T20:23:33.966Z,1.00
2023-05-24T20:26:01.870Z,1.00
2023-05-24T20:28:32.089Z,1.00
2023-05-24T20:31:00.439Z,1.00
2023-05-24T20:33:28.429Z,1.00
2023-05-24T20:35:56.404Z,1.00
2023-05-24T20:38:24.383Z,1.00
2023-05-24T20:40:52.401Z,1.00
2023-05-24T20:43:20.616Z,1.00
2023-05-24T20:45:49.915Z,1.00
2023-05-24T20:48:17.879Z,1.00
2023-05-24T20:50:45.772Z,1.00
2023-05-24T20:53:13.671Z,1.00
2023-05-24T21:09:37.311Z,5.40
2023-05-24T21:12:06.349Z,2.40
2023-05-24T21:42:19.021Z,6.70
2023-05-24T21:44:46.934Z,9.40
2023-05-24T21:47:15.072Z,12.80
2023-05-24T21:49:42.957Z,10.50
2023-05-24T21:52:10.832Z,12.30
2023-05-24T21:54:38.679Z,11.90
2023-05-24T21:57:07.241Z,18.90
2023-05-24T21:59:36.693Z,12.20
2023-05-24T22:02:04.770Z,13.00
2023-05-24T22:04:32.740Z,11.40
2023-05-24T22:07:00.656Z,14.30
2023-05-24T22:09:28.637Z,14.10
2023-05-24T22:11:56.498Z,12.40
2023-05-24T22:14:24.467Z,17.40
2023-05-24T22:16:53.806Z,12.30
2023-05-24T22:19:35.744Z,17.30
2023-05-24T22:22:07.672Z,21.30
2023-05-24T22:24:35.694Z,15.20
2023-05-24T22:27:03.829Z,17.40
2023-05-24T22:29:31.820Z,17.50
2023-05-24T22:32:01.121Z,21.00
2023-05-24T22:34:29.644Z,18.90
2023-05-24T22:36:58.154Z,23.10
2023-05-24T22:39:26.065Z,23.00
2023-05-24T22:41:54.152Z,21.20
2023-05-24T22:44:22.063Z,23.80
2023-05-24T22:46:50.202Z,23.50
2023-05-24T22:49:20.237Z,25.00
2023-05-24T22:51:48.549Z,23.00
2023-05-24T22:54:16.645Z,24.80
2023-05-24T22:56:44.785Z,26.00
2023-05-24T22:59:12.668Z,25.40
2023-05-24T23:01:40.579Z,23.90
2023-05-24T23:04:20.749Z,20.30
2023-05-24T23:06:52.831Z,20.00
2023-05-24T23:09:34.052Z,17.20
2023-05-24T23:12:02.311Z,19.70
2023-05-24T23:14:31.214Z,16.80
2023-05-24T23:17:02.516Z,12.50
2023-05-24T23:19:31.077Z,15.00
2023-05-24T23:22:00.497Z,13.20
2023-05-24T23:24:28.375Z,11.10
2023-05-24T23:26:57.083Z,5.90
2023-05-24T23:29:25.001Z,11.50
2023-05-24T23:31:52.902Z,10.80
2023-05-24T23:34:20.758Z,12.10
2023-05-24T23:36:48.689Z,12.10
2023-05-24T23:39:17.984Z,11.60
2023-05-24T23:41:46.034Z,11.90
2023-05-24T23:44:13.928Z,7.50
2023-05-24T23:46:42.495Z,14.50
2023-05-24T23:49:10.488Z,12.50
2023-05-24T23:51:38.440Z,9.30
2023-05-24T23:54:06.634Z,9.50
2023-05-24T23:56:36.888Z,14.00
2023-05-24T23:59:04.774Z,16.30
